createdAt,value
2019-02-22T00:02:06.141Z,8.10
2019-02-22T00:04:35.570Z,8.10
2019-02-22T00:07:04.990Z,8.10
2019-02-22T00:09:34.396Z,8.10
2019-02-22T00:12:04.410Z,8.10
2019-02-22T00:14:35.236Z,8.10
2019-02-22T00:17:10.551Z,8.10
2019-02-22T00:19:39.905Z,8.00
2019-02-22T00:22:10.067Z,7.90
2019-02-22T00:24:39.423Z,7.90
2019-02-22T00:27:09.628Z,7.90
2019-02-22T00:29:39.026Z,7.80
2019-02-22T00:32:08.406Z,7.80
2019-02-22T00:34:38.281Z,7.80
2019-02-22T00:37:07.865Z,7.80
2019-02-22T00:39:37.398Z,7.80
2019-02-22T00:42:06.842Z,7.80
2019-02-22T00:44:37.872Z,7.70
2019-02-22T00:47:07.444Z,7.70
2019-02-22T00:49:41.108Z,7.70
2019-02-22T00:52:12.300Z,7.70
2019-02-22T00:54:42.082Z,7.70
2019-02-22T00:57:11.512Z,7.70
2019-02-22T00:59:40.934Z,7.70
2019-02-22T01:02:11.179Z,7.70
2019-02-22T01:04:40.592Z,7.70
2019-02-22T01:07:10.479Z,7.70
2019-02-22T01:09:41.851Z,7.80
2019-02-22T01:12:14.766Z,7.80
2019-02-22T01:14:44.384Z,7.70
2019-02-22T01:17:15.346Z,7.80
2019-02-22T01:19:45.197Z,7.70
2019-02-22T01:22:22.837Z,7.70
2019-02-22T01:24:52.189Z,7.70
2019-02-22T01:27:21.641Z,7.70
2019-02-22T01:29:53.104Z,7.70
2019-02-22T01:32:24.839Z,7.70
2019-02-22T01:34:59.935Z,7.60
2019-02-22T01:37:31.254Z,7.60
2019-02-22T01:40:06.054Z,7.60
2019-02-22T01:42:36.578Z,7.60
2019-02-22T01:45:07.716Z,7.60
2019-02-22T01:47:38.220Z,7.60
2019-02-22T01:50:08.819Z,7.60
2019-02-22T01:52:38.179Z,7.60
2019-02-22T01:55:07.745Z,7.50
2019-02-22T01:57:39.346Z,7.60
2019-02-22T02:00:11.293Z,7.50
2019-02-22T02:02:40.760Z,7.60
2019-02-22T02:05:10.209Z,7.60
2019-02-22T02:07:39.597Z,7.50
2019-02-22T02:10:09.017Z,7.50
2019-02-22T02:12:38.447Z,7.50
2019-02-22T02:15:08.794Z,7.40
2019-02-22T02:17:41.475Z,7.40
2019-02-22T02:20:11.745Z,7.50
2019-02-22T02:22:41.106Z,7.40
2019-02-22T02:25:11.457Z,7.50
2019-02-22T02:27:42.888Z,7.50
2019-02-22T02:30:13.396Z,7.50
2019-02-22T02:32:43.775Z,7.50
2019-02-22T02:35:18.215Z,7.50
2019-02-22T02:37:50.062Z,7.50
2019-02-22T02:40:21.852Z,7.50
2019-02-22T02:42:51.298Z,7.50
2019-02-22T02:45:21.259Z,7.50
2019-02-22T02:47:50.633Z,7.60
2019-02-22T02:50:20.972Z,7.60
2019-02-22T02:52:50.369Z,7.60
2019-02-22T02:55:36.069Z,7.70
2019-02-22T02:58:05.763Z,7.60
2019-02-22T03:00:39.490Z,7.50
2019-02-22T03:03:08.892Z,7.60
2019-02-22T03:06:11.659Z,7.60
2019-02-22T03:08:41.075Z,7.60
2019-02-22T03:11:20.166Z,7.60
2019-02-22T03:13:41.537Z,7.60
2019-02-22T03:16:10.956Z,7.60
2019-02-22T03:18:40.336Z,7.50
2019-02-22T03:21:09.777Z,7.40
2019-02-22T03:23:39.896Z,7.50
2019-02-22T03:26:09.869Z,7.50
2019-02-22T03:28:42.932Z,7.40
2019-02-22T03:31:12.411Z,7.50
2019-02-22T03:33:42.214Z,7.40
2019-02-22T03:36:13.692Z,7.40
2019-02-22T03:38:45.635Z,7.40
2019-02-22T03:41:16.837Z,7.40
2019-02-22T03:43:46.809Z,7.40
2019-02-22T03:46:17.048Z,7.40
2019-02-22T03:48:47.541Z,7.50
2019-02-22T03:51:21.279Z,7.40
2019-02-22T03:53:57.255Z,7.40
2019-02-22T03:56:26.546Z,7.40
2019-02-22T03:58:56.364Z,7.40
2019-02-22T04:01:25.795Z,7.40
2019-02-22T04:03:55.204Z,7.40
2019-02-22T04:06:24.629Z,7.30
2019-02-22T04:08:55.780Z,7.20
2019-02-22T04:11:25.149Z,7.20
2019-02-22T04:13:54.624Z,7.10
2019-02-22T04:16:27.468Z,7.10
2019-02-22T04:18:57.610Z,7.10
2019-02-22T04:21:29.083Z,7.10
2019-02-22T04:23:59.828Z,7.10
2019-02-22T04:26:34.538Z,7.10
2019-02-22T04:29:06.480Z,7.10
2019-02-22T04:31:36.965Z,7.10
2019-02-22T04:34:06.410Z,7.00
2019-02-22T04:36:36.814Z,7.00
2019-02-22T04:39:08.816Z,7.00
2019-02-22T04:41:39.927Z,7.10
2019-02-22T04:44:09.617Z,7.10
2019-02-22T04:46:39.983Z,7.10
2019-02-22T04:49:09.326Z,7.10
2019-02-22T04:51:43.546Z,7.10
2019-02-22T04:54:16.088Z,7.10
2019-02-22T04:56:46.333Z,7.10
2019-02-22T04:59:17.398Z,7.00
2019-02-22T05:01:51.477Z,6.90
2019-02-22T05:04:20.914Z,6.90
2019-02-22T05:06:50.715Z,7.00
2019-02-22T05:09:20.118Z,7.00
2019-02-22T05:11:49.530Z,6.90
2019-02-22T05:14:19.202Z,6.90
2019-02-22T05:16:48.602Z,6.90
2019-02-22T05:19:22.183Z,6.90
2019-02-22T05:21:52.240Z,6.90
2019-02-22T05:24:21.854Z,6.90
2019-02-22T05:26:51.241Z,6.90
2019-02-22T05:29:21.781Z,6.80
2019-02-22T05:31:51.194Z,6.80
2019-02-22T05:34:20.574Z,6.90
2019-02-22T05:36:52.526Z,6.80
2019-02-22T05:39:22.117Z,6.80
2019-02-22T05:41:51.864Z,6.80
2019-02-22T05:44:23.108Z,6.80
2019-02-22T05:47:00.266Z,6.70
2019-02-22T05:49:25.738Z,6.70
2019-02-22T05:51:55.272Z,6.70
2019-02-22T05:54:24.683Z,6.70
2019-02-22T05:56:55.517Z,6.70
2019-02-22T05:59:25.457Z,6.70
2019-02-22T06:01:54.833Z,6.70
2019-02-22T06:04:24.349Z,6.80
2019-02-22T06:06:53.880Z,6.70
2019-02-22T06:09:23.461Z,6.60
2019-02-22T06:11:53.229Z,6.80
2019-02-22T06:14:22.705Z,6.80
2019-02-22T06:16:52.103Z,6.70
2019-02-22T06:19:22.785Z,6.80
2019-02-22T06:21:52.282Z,6.80
2019-02-22T06:24:21.694Z,6.80
2019-02-22T06:26:54.956Z,6.80
2019-02-22T06:29:25.254Z,6.80
2019-02-22T06:31:55.047Z,6.80
2019-02-22T06:34:27.718Z,6.80
2019-02-22T06:37:02.192Z,6.90
2019-02-22T06:39:31.780Z,6.90
2019-02-22T06:42:01.094Z,6.90
2019-02-22T06:44:30.786Z,6.90
2019-02-22T06:47:00.185Z,7.00
2019-02-22T06:49:31.100Z,7.00
2019-02-22T06:52:00.897Z,7.00
2019-02-22T06:54:30.291Z,6.90
2019-02-22T06:57:01.037Z,6.90
2019-02-22T06:59:30.782Z,7.00
2019-02-22T07:02:00.178Z,7.10
2019-02-22T07:04:29.582Z,7.20
2019-02-22T07:06:59.010Z,7.10
2019-02-22T07:09:28.390Z,7.20
2019-02-22T07:12:01.401Z,7.20
2019-02-22T07:14:32.037Z,7.20
2019-02-22T07:17:04.600Z,7.20
2019-02-22T07:19:33.969Z,7.20
2019-02-22T07:22:03.392Z,7.20
2019-02-22T07:24:32.773Z,7.20
2019-02-22T07:27:02.282Z,7.20
2019-02-22T07:29:31.693Z,7.20
2019-02-22T07:32:06.686Z,7.30
2019-02-22T07:34:36.081Z,7.30
2019-02-22T07:37:08.915Z,7.30
2019-02-22T07:39:38.271Z,7.20
2019-02-22T07:42:07.809Z,7.20
2019-02-22T07:44:37.236Z,7.20
2019-02-22T07:47:06.617Z,7.20
2019-02-22T07:49:36.002Z,7.20
2019-02-22T07:52:05.637Z,7.20
2019-02-22T07:54:36.042Z,7.20
2019-02-22T07:57:07.837Z,7.30
2019-02-22T07:59:37.889Z,7.30
2019-02-22T08:02:14.816Z,7.30
2019-02-22T08:04:49.315Z,7.30
2019-02-22T08:07:18.807Z,7.30
2019-02-22T08:09:49.619Z,7.30
2019-02-22T08:12:25.112Z,7.20
2019-02-22T08:14:55.531Z,7.30
2019-02-22T08:17:32.619Z,7.30
2019-02-22T08:20:02.409Z,7.40
2019-02-22T08:22:31.842Z,7.30
2019-02-22T08:25:01.247Z,7.40
2019-02-22T08:27:33.825Z,7.40
2019-02-22T08:30:03.680Z,7.40
2019-02-22T08:32:33.068Z,7.40
2019-02-22T08:35:03.023Z,7.50
2019-02-22T08:37:32.474Z,7.60
2019-02-22T08:40:02.614Z,7.70
2019-02-22T08:42:32.041Z,7.80
2019-02-22T08:45:03.394Z,7.90
2019-02-22T08:47:33.001Z,7.90
2019-02-22T08:50:02.386Z,8.00
2019-02-22T08:52:33.442Z,8.10
2019-02-22T08:55:03.365Z,8.20
2019-02-22T08:57:36.289Z,8.10
2019-02-22T09:00:09.509Z,8.10
2019-02-22T09:02:39.023Z,8.10
2019-02-22T09:05:09.965Z,8.10
2019-02-22T09:07:40.269Z,8.10
2019-02-22T09:10:10.585Z,8.10
2019-02-22T09:12:41.151Z,8.10
2019-02-22T09:15:10.970Z,8.10
2019-02-22T09:17:40.373Z,8.20
2019-02-22T09:20:10.056Z,8.20
2019-02-22T09:22:39.582Z,8.20
2019-02-22T09:25:08.981Z,8.20
2019-02-22T09:27:38.372Z,8.20
2019-02-22T09:30:09.355Z,8.10
2019-02-22T09:32:39.865Z,8.10
2019-02-22T09:35:10.285Z,8.00
2019-02-22T09:37:39.751Z,8.00
2019-02-22T09:40:10.600Z,7.90
2019-02-22T09:42:39.981Z,7.90
2019-02-22T09:45:10.785Z,7.90
2019-02-22T09:47:40.971Z,7.90
2019-02-22T09:50:11.874Z,8.00
2019-02-22T09:52:43.319Z,8.10
2019-02-22T09:55:12.936Z,8.20
2019-02-22T09:57:42.516Z,8.30
2019-02-22T10:00:17.244Z,8.50
2019-02-22T10:02:48.295Z,8.60
2019-02-22T10:05:25.878Z,8.60
2019-02-22T10:08:02.499Z,8.70
2019-02-22T10:10:35.646Z,8.80
2019-02-22T10:13:05.017Z,8.80
2019-02-22T10:15:34.852Z,8.90
2019-02-22T10:18:04.237Z,8.90
2019-02-22T10:20:41.775Z,9.10
2019-02-22T10:23:11.353Z,9.10
2019-02-22T10:25:50.636Z,9.10
2019-02-22T10:28:21.493Z,9.10
2019-02-22T10:30:52.278Z,9.20
2019-02-22T10:33:21.730Z,9.20
2019-02-22T10:35:56.346Z,9.20
2019-02-22T10:38:25.748Z,9.20
2019-02-22T10:40:55.150Z,9.30
2019-02-22T10:43:24.535Z,9.20
2019-02-22T10:45:54.690Z,9.30
2019-02-22T10:48:24.041Z,9.40
2019-02-22T10:50:53.595Z,9.50
2019-02-22T10:53:24.567Z,9.60
2019-02-22T10:55:58.710Z,9.70
2019-02-22T10:58:30.339Z,9.60
2019-02-22T11:01:00.435Z,9.70
2019-02-22T11:03:29.797Z,9.70
2019-02-22T11:05:59.264Z,9.80
2019-02-22T11:08:28.694Z,9.90
2019-02-22T11:10:58.484Z,10.00
2019-02-22T11:13:29.551Z,10.10
2019-02-22T11:15:58.969Z,10.30
2019-02-22T11:18:29.653Z,10.30
2019-02-22T11:20:59.100Z,10.20
2019-02-22T11:23:29.555Z,10.10
2019-02-22T11:25:59.978Z,10.20
2019-02-22T11:28:31.937Z,10.20
2019-02-22T11:31:01.369Z,10.30
2019-02-22T11:33:30.751Z,10.30
2019-02-22T11:36:03.907Z,10.20
2019-02-22T11:38:33.792Z,10.20
2019-02-22T11:41:03.464Z,10.30
2019-02-22T11:43:33.057Z,10.30
2019-02-22T11:46:05.101Z,10.40
2019-02-22T11:48:38.904Z,10.50
2019-02-22T11:51:08.628Z,10.70
2019-02-22T11:53:38.656Z,10.90
2019-02-22T11:56:08.063Z,11.00
2019-02-22T11:58:37.480Z,11.20
2019-02-22T12:01:09.238Z,11.20
2019-02-22T12:03:40.805Z,11.30
2019-02-22T12:06:13.834Z,11.40
2019-02-22T12:08:43.463Z,11.50
2019-02-22T12:11:15.996Z,11.50
2019-02-22T12:13:49.666Z,11.60
2019-02-22T12:16:19.519Z,11.60
2019-02-22T12:18:52.767Z,11.60
2019-02-22T12:21:23.149Z,11.60
2019-02-22T12:23:55.562Z,11.70
2019-02-22T12:26:31.967Z,11.90
2019-02-22T12:29:06.748Z,12.10
2019-02-22T12:31:36.359Z,12.20
2019-02-22T12:34:05.923Z,12.40
2019-02-22T12:36:41.124Z,12.40
2019-02-22T12:39:12.598Z,12.50
2019-02-22T12:41:43.967Z,12.60
2019-02-22T12:44:15.459Z,12.70
2019-02-22T12:46:46.362Z,12.70
2019-02-22T12:49:17.270Z,12.70
2019-02-22T12:51:46.661Z,12.70
2019-02-22T12:54:18.053Z,12.60
2019-02-22T12:56:57.373Z,12.50
2019-02-22T12:59:18.492Z,12.40
2019-02-22T13:01:47.913Z,12.30
2019-02-22T13:04:18.117Z,12.30
2019-02-22T13:06:51.017Z,12.20
2019-02-22T13:09:21.812Z,12.00
2019-02-22T13:11:51.221Z,11.80
2019-02-22T13:14:20.603Z,11.50
2019-02-22T13:16:50.012Z,11.30
2019-02-22T13:19:19.473Z,11.10
2019-02-22T13:21:49.404Z,11.00
2019-02-22T13:24:18.923Z,10.90
2019-02-22T13:26:48.323Z,10.90
2019-02-22T13:29:18.078Z,10.90
2019-02-22T13:31:48.653Z,10.90
2019-02-22T13:34:19.548Z,11.00
2019-02-22T13:36:54.478Z,11.10
2019-02-22T13:39:25.879Z,11.10
2019-02-22T13:41:55.503Z,11.00
2019-02-22T13:44:26.593Z,11.20
2019-02-22T13:46:56.616Z,11.30
2019-02-22T13:49:26.009Z,11.30
2019-02-22T13:51:55.506Z,11.40
2019-02-22T13:54:25.265Z,11.50
2019-02-22T13:56:59.502Z,11.40
2019-02-22T13:59:28.817Z,11.60
2019-02-22T14:02:00.595Z,11.70
2019-02-22T14:04:30.008Z,11.80
2019-02-22T14:06:59.466Z,11.80
2019-02-22T14:09:28.967Z,11.80
2019-02-22T14:11:59.052Z,11.70
2019-02-22T14:14:30.625Z,11.60
2019-02-22T14:17:00.362Z,11.60
2019-02-22T14:19:29.761Z,11.70
2019-02-22T14:21:59.433Z,11.50
2019-02-22T14:24:29.196Z,11.30
2019-02-22T14:26:59.501Z,10.80
2019-02-22T14:29:28.889Z,10.40
2019-02-22T14:31:58.297Z,10.20
2019-02-22T14:34:29.283Z,10.00
2019-02-22T14:37:01.001Z,9.90
2019-02-22T14:39:32.978Z,9.90
2019-02-22T14:42:02.289Z,9.90
2019-02-22T14:44:31.683Z,10.00
2019-02-22T14:47:01.101Z,10.10
2019-02-22T14:49:30.509Z,10.10
2019-02-22T14:51:59.892Z,10.20
2019-02-22T14:54:29.317Z,10.20
2019-02-22T14:56:59.416Z,10.30
2019-02-22T14:59:33.965Z,10.30
2019-02-22T15:02:04.519Z,10.40
2019-02-22T15:04:36.181Z,10.50
2019-02-22T15:07:06.633Z,10.50
2019-02-22T15:09:36.089Z,10.50
2019-02-22T15:12:05.917Z,10.60
2019-02-22T15:14:37.087Z,10.60
2019-02-22T15:17:27.885Z,10.60
2019-02-22T15:20:00.664Z,10.60
2019-02-22T15:22:33.507Z,10.60
2019-02-22T15:25:08.910Z,10.50
2019-02-22T15:27:41.700Z,10.40
2019-02-22T15:30:11.641Z,10.40
2019-02-22T15:32:42.211Z,10.20
2019-02-22T15:35:14.994Z,10.20
2019-02-22T15:37:46.474Z,10.20
2019-02-22T15:40:19.830Z,10.20
2019-02-22T15:42:49.298Z,10.20
2019-02-22T15:45:21.335Z,10.20
2019-02-22T15:47:55.190Z,10.20
2019-02-22T15:50:25.977Z,10.10
2019-02-22T15:52:55.298Z,10.10
2019-02-22T15:55:24.761Z,10.20
2019-02-22T15:57:55.921Z,10.20
2019-02-22T16:00:27.297Z,10.10
2019-02-22T16:02:57.893Z,10.00
2019-02-22T16:05:31.276Z,9.90
2019-02-22T16:08:03.143Z,9.80
2019-02-22T16:10:35.062Z,9.70
2019-02-22T16:13:04.559Z,9.60
2019-02-22T16:15:36.272Z,9.50
2019-02-22T16:18:07.115Z,9.50
2019-02-22T16:20:37.570Z,9.40
2019-02-22T16:23:07.561Z,9.40
2019-02-22T16:25:37.309Z,9.30
2019-02-22T16:28:06.705Z,9.30
2019-02-22T16:30:37.837Z,9.30
2019-02-22T16:33:07.266Z,9.30
2019-02-22T16:35:36.797Z,9.20
2019-02-22T16:38:06.549Z,9.10
2019-02-22T16:40:36.715Z,9.10
2019-02-22T16:43:07.556Z,9.10
2019-02-22T16:45:40.971Z,9.00
2019-02-22T16:48:10.396Z,9.10
2019-02-22T16:50:39.770Z,9.00
2019-02-22T16:53:13.838Z,9.00
2019-02-22T16:55:46.705Z,9.00
2019-02-22T16:58:20.253Z,9.00
2019-02-22T17:00:49.698Z,8.90
2019-02-22T17:03:22.873Z,8.80
2019-02-22T17:05:52.441Z,8.70
2019-02-22T17:08:22.093Z,8.70
2019-02-22T17:10:54.304Z,8.60
2019-02-22T17:13:24.030Z,8.60
2019-02-22T17:15:56.462Z,8.60
2019-02-22T17:18:26.796Z,8.60
2019-02-22T17:20:56.213Z,8.60
2019-02-22T17:23:25.594Z,8.60
2019-02-22T17:26:02.491Z,8.60
2019-02-22T17:28:34.930Z,8.60
2019-02-22T17:31:04.347Z,8.60
2019-02-22T17:33:34.596Z,8.50
2019-02-22T17:36:03.996Z,8.60
2019-02-22T17:38:33.511Z,8.60
2019-02-22T17:41:03.972Z,8.60
2019-02-22T17:43:34.562Z,8.60
2019-02-22T17:46:04.226Z,8.60
2019-02-22T17:48:33.808Z,8.60
2019-02-22T17:51:05.764Z,8.60
2019-02-22T17:53:35.297Z,8.50
2019-02-22T17:56:11.265Z,8.50
2019-02-22T17:58:41.109Z,8.50
2019-02-22T18:01:10.596Z,8.40
2019-02-22T18:03:40.456Z,8.30
2019-02-22T18:06:10.534Z,8.20
2019-02-22T18:08:39.973Z,8.20
2019-02-22T18:11:09.421Z,8.10
2019-02-22T18:13:39.136Z,8.20
2019-02-22T18:16:08.704Z,8.10
2019-02-22T18:18:38.667Z,8.00
2019-02-22T18:21:08.173Z,8.00
2019-02-22T18:23:38.387Z,7.90
2019-02-22T18:26:08.038Z,7.90
2019-02-22T18:28:37.544Z,7.90
2019-02-22T18:31:06.942Z,7.90
2019-02-22T18:33:36.397Z,7.80
2019-02-22T18:36:06.766Z,7.80
2019-02-22T18:38:36.576Z,7.80
2019-02-22T18:41:06.385Z,7.80
2019-02-22T18:43:35.710Z,7.70
2019-02-22T18:46:05.101Z,7.70
2019-02-22T18:48:35.998Z,7.70
2019-02-22T18:51:05.378Z,7.70
2019-02-22T18:53:34.744Z,7.70
2019-02-22T18:56:04.184Z,7.70
2019-02-22T18:58:33.616Z,7.60
2019-02-22T19:01:03.845Z,7.60
2019-02-22T19:03:33.586Z,7.50
2019-02-22T19:06:03.519Z,7.50
2019-02-22T19:08:32.961Z,7.40
2019-02-22T19:11:02.369Z,7.30
2019-02-22T19:13:32.549Z,7.40
2019-02-22T19:16:02.012Z,7.40
2019-02-22T19:18:31.460Z,7.30
2019-02-22T19:21:01.729Z,7.30
2019-02-22T19:23:31.828Z,7.20
2019-02-22T19:26:01.357Z,7.20
2019-02-22T19:28:30.747Z,7.20
2019-02-22T19:31:01.021Z,7.00
2019-02-22T19:33:30.824Z,6.90
2019-02-22T19:36:00.242Z,6.90
2019-02-22T19:38:29.765Z,6.80
2019-02-22T19:40:59.200Z,6.70
2019-02-22T19:43:30.578Z,6.70
2019-02-22T19:45:59.932Z,6.70
2019-02-22T19:48:29.489Z,6.70
2019-02-22T19:50:59.884Z,6.70
2019-02-22T19:53:30.901Z,6.70
2019-02-22T19:56:00.551Z,6.70
2019-02-22T19:58:33.035Z,6.70
2019-02-22T20:01:03.762Z,6.70
2019-02-22T20:03:33.582Z,6.70
2019-02-22T20:06:02.969Z,6.60
2019-02-22T20:08:32.399Z,6.60
2019-02-22T20:11:01.823Z,6.50
2019-02-22T20:13:32.744Z,6.50
2019-02-22T20:16:02.145Z,6.60
2019-02-22T20:18:31.788Z,6.60
2019-02-22T20:21:01.320Z,6.60
2019-02-22T20:23:30.711Z,6.60
2019-02-22T20:26:00.957Z,6.60
2019-02-22T20:28:30.353Z,6.50
2019-02-22T20:30:59.745Z,6.50
2019-02-22T20:33:29.169Z,6.40
2019-02-22T20:36:00.828Z,6.50
2019-02-22T20:38:30.147Z,6.40
2019-02-22T20:40:59.668Z,6.40
2019-02-22T20:43:35.426Z,6.40
2019-02-22T20:46:07.339Z,6.30
2019-02-22T20:48:37.987Z,6.20
2019-02-22T20:51:07.453Z,6.10
2019-02-22T20:53:36.939Z,6.00
2019-02-22T20:56:07.656Z,6.00
2019-02-22T20:58:37.333Z,5.90
2019-02-22T21:01:14.510Z,5.80
2019-02-22T21:03:38.283Z,5.70
2019-02-22T21:06:08.248Z,5.60
2019-02-22T21:08:38.023Z,5.50
2019-02-22T21:11:07.520Z,5.40
2019-02-22T21:13:39.674Z,5.40
2019-02-22T21:16:09.014Z,5.30
2019-02-22T21:18:38.561Z,5.20
2019-02-22T21:21:08.041Z,5.10
2019-02-22T21:23:37.493Z,5.00
2019-02-22T21:26:07.696Z,4.90
2019-02-22T21:28:37.753Z,4.90
2019-02-22T21:31:09.573Z,4.80
2019-02-22T21:33:42.244Z,4.80
2019-02-22T21:36:13.927Z,4.70
2019-02-22T21:38:43.373Z,4.70
2019-02-22T21:41:13.108Z,4.70
2019-02-22T21:43:44.970Z,4.60
2019-02-22T21:46:18.068Z,4.70
2019-02-22T21:48:47.867Z,4.60
2019-02-22T21:51:18.306Z,4.60
2019-02-22T21:53:48.903Z,4.60
2019-02-22T21:56:20.265Z,4.50
2019-02-22T21:58:49.744Z,4.50
2019-02-22T22:01:19.138Z,4.50
2019-02-22T22:03:51.361Z,4.40
2019-02-22T22:06:20.826Z,4.30
2019-02-22T22:08:50.280Z,4.20
2019-02-22T22:11:19.686Z,4.20
2019-02-22T22:13:49.068Z,4.10
2019-02-22T22:16:18.469Z,4.00
2019-02-22T22:18:48.940Z,4.00
2019-02-22T22:21:20.851Z,3.90
2019-02-22T22:23:50.202Z,3.90
2019-02-22T22:26:21.026Z,3.80
2019-02-22T22:28:50.408Z,3.70
2019-02-22T22:31:19.787Z,3.70
2019-02-22T22:33:49.889Z,3.60
2019-02-22T22:36:19.870Z,3.60
2019-02-22T22:38:49.503Z,3.50
2019-02-22T22:41:20.786Z,3.50
2019-02-22T22:43:51.020Z,3.40
2019-02-22T22:46:20.417Z,3.30
2019-02-22T22:48:50.802Z,3.20
2019-02-22T22:51:20.658Z,3.10
2019-02-22T22:53:50.348Z,3.10
2019-02-22T22:56:21.177Z,3.00
2019-02-22T22:58:51.096Z,2.90
2019-02-22T23:01:24.739Z,2.90
2019-02-22T23:03:54.209Z,2.80
2019-02-22T23:06:23.693Z,2.80
2019-02-22T23:08:53.542Z,2.80
2019-02-22T23:11:23.324Z,2.80
2019-02-22T23:13:52.905Z,2.80
2019-02-22T23:16:22.312Z,2.80
2019-02-22T23:19:01.390Z,2.80
2019-02-22T23:21:24.312Z,2.70
2019-02-22T23:23:54.157Z,2.70
2019-02-22T23:26:23.594Z,2.70
2019-02-22T23:28:52.973Z,2.70
2019-02-22T23:31:22.934Z,2.60
2019-02-22T23:33:53.467Z,2.50
2019-02-22T23:36:22.822Z,2.60
2019-02-22T23:38:52.477Z,2.60
2019-02-22T23:41:21.920Z,2.50
2019-02-22T23:43:51.630Z,2.50
2019-02-22T23:46:21.857Z,2.50
2019-02-22T23:48:51.281Z,2.40
2019-02-22T23:51:20.661Z,2.40
2019-02-22T23:53:50.044Z,2.40
2019-02-22T23:56:20.277Z,2.30
2019-02-22T23:58:50.245Z,2.30
